Time;durP1;ratioP1;P1;durP2;ratioP2;P2;SDS_P1;SDS_P2;PMS_P1;PMS_P2;Temp;Humidity;BMP_temperature;BMP_pressure;BME280_temperature;BME280_humidity;BME280_pressure;Samples;Min_cycle;Max_cycle;Signal;HPM_P1;HPM_P2
2021/08/01 00:00:45;;;;;;;0.90;0.50;;;;;;;;;;5071500;28;20441;-76
2021/08/01 00:03:49;;;;;;;0.90;0.40;;;;;;;;;;5071366;28;20480;-76
2021/08/01 00:06:52;;;;;;;1.92;0.65;;;;;;;;;;5071643;28;20539;-75
2021/08/01 00:09:59;;;;;;;2.63;0.98;;;;;;;;;;5071857;28;20465;-75
2021/08/01 00:13:02;;;;;;;1.05;0.65;;;;;;;;;;5068511;28;20040;-75
2021/08/01 00:16:06;;;;;;;0.30;0.30;;;;;;;;;;5054939;28;20044;-76
2021/08/01 00:19:09;;;;;;;1.33;0.70;;;;;;;;;;5055535;28;20382;-75
2021/08/01 00:22:13;;;;;;;3.53;0.77;;;;;;;;;;5055573;28;20037;-76
2021/08/01 00:25:16;;;;;;;0.68;0.47;;;;;;;;;;5055370;28;20045;-76
2021/08/01 00:28:19;;;;;;;2.50;0.68;;;;;;;;;;5055401;28;20370;-76
2021/08/01 00:31:22;;;;;;;0.95;0.85;;;;;;;;;;5054321;28;20049;-76
2021/08/01 00:34:26;;;;;;;1.80;0.95;;;;;;;;;;5054319;28;20049;-76
2021/08/01 00:37:29;;;;;;;0.82;0.75;;;;;;;;;;5054735;28;20041;-76
2021/08/01 00:40:32;;;;;;;3.35;1.50;;;;;;;;;;5054606;28;20037;-76
2021/08/01 00:43:35;;;;;;;2.80;0.98;;;;;;;;;;5054608;28;20041;-76
2021/08/01 00:46:40;;;;;;;2.05;0.90;;;;;;;;;;5054544;28;20040;-76
2021/08/01 00:49:43;;;;;;;1.17;0.55;;;;;;;;;;5054707;28;20477;-76
2021/08/01 00:52:49;;;;;;;0.68;0.50;;;;;;;;;;5054910;28;20033;-76
2021/08/01 00:55:52;;;;;;;1.33;0.93;;;;;;;;;;5054900;28;20470;-76
2021/08/01 00:58:55;;;;;;;1.13;1.02;;;;;;;;;;5054924;28;20041;-76
2021/08/01 01:02:03;;;;;;;2.63;1.25;;;;;;;;;;5054356;28;20485;-76
2021/08/01 01:05:06;;;;;;;4.80;1.52;;;;;;;;;;5053197;28;20378;-77
2021/08/01 01:08:25;;;;;;;3.30;0.57;;;;;;;;;;5054465;28;20410;-77
2021/08/01 01:11:31;;;;;;;3.60;0.80;;;;;;;;;;5053622;28;20045;-77
2021/08/01 01:14:38;;;;;;;2.80;1.10;;;;;;;;;;5056309;28;20523;-76
2021/08/01 01:17:41;;;;;;;1.73;0.65;;;;;;;;;;5055040;28;20036;-76
2021/08/01 01:20:54;;;;;;;4.28;0.80;;;;;;;;;;5053872;28;20037;-76
2021/08/01 01:24:02;;;;;;;1.85;0.93;;;;;;;;;;5053690;28;20045;-76
2021/08/01 01:27:34;;;;;;;0.63;0.30;;;;;;;;;;5053421;28;20045;-77
2021/08/01 01:30:43;;;;;;;1.77;0.60;;;;;;;;;;5039257;28;20473;-76
2021/08/01 01:33:58;;;;;;;2.17;0.47;;;;;;;;;;5053577;28;20049;-76
2021/08/01 01:37:02;;;;;;;2.35;0.95;;;;;;;;;;5053890;28;20036;-77
2021/08/01 01:40:06;;;;;;;1.65;0.73;;;;;;;;;;5054161;28;20045;-76
2021/08/01 01:43:09;;;;;;;8.10;0.50;;;;;;;;;;5053865;28;20045;-76
2021/08/01 01:46:12;;;;;;;3.30;0.85;;;;;;;;;;5053638;28;20045;-77
2021/08/01 01:49:16;;;;;;;2.28;0.68;;;;;;;;;;5053780;28;20049;-76
2021/08/01 01:52:21;;;;;;;4.70;0.85;;;;;;;;;;5053467;28;20474;-77
2021/08/01 01:55:25;;;;;;;4.47;1.38;;;;;;;;;;5053455;28;20045;-76
2021/08/01 01:58:29;;;;;;;8.32;1.35;;;;;;;;;;5053152;28;20041;-75
2021/08/01 02:01:32;;;;;;;3.85;1.73;;;;;;;;;;5052796;28;20044;-75
2021/08/01 02:04:36;;;;;;;2.85;0.90;;;;;;;;;;5052736;28;20481;-75
2021/08/01 02:07:39;;;;;;;4.15;1.30;;;;;;;;;;5052889;28;20433;-76
2021/08/01 02:10:48;;;;;;;2.92;1.00;;;;;;;;;;5053054;28;20041;-76
2021/08/01 02:14:13;;;;;;;4.18;0.88;;;;;;;;;;5053398;28;20040;-76
2021/08/01 02:17:18;;;;;;;6.57;1.60;;;;;;;;;;5053066;28;20041;-75
2021/08/01 02:20:28;;;;;;;4.75;1.20;;;;;;;;;;5052042;28;20040;-76
2021/08/01 02:23:35;;;;;;;4.47;1.15;;;;;;;;;;5052475;28;20045;-78
2021/08/01 02:26:39;;;;;;;1.70;0.73;;;;;;;;;;5052673;28;20072;-78
2021/08/01 02:29:42;;;;;;;3.35;0.73;;;;;;;;;;5052637;28;20045;-77
2021/08/01 02:32:47;;;;;;;3.72;1.13;;;;;;;;;;5052270;28;20496;-77
2021/08/01 02:35:51;;;;;;;3.05;1.25;;;;;;;;;;5052403;28;20044;-77
2021/08/01 02:38:55;;;;;;;2.47;0.70;;;;;;;;;;5051764;28;20577;-77
2021/08/01 02:41:59;;;;;;;3.35;1.42;;;;;;;;;;5052300;28;20378;-77
2021/08/01 02:45:03;;;;;;;3.58;1.17;;;;;;;;;;5052302;28;20057;-75
2021/08/01 02:48:07;;;;;;;2.10;0.77;;;;;;;;;;5052750;28;20037;-77
2021/08/01 02:51:10;;;;;;;0.98;0.50;;;;;;;;;;5052659;28;20041;-80
2021/08/01 02:54:14;;;;;;;1.63;0.65;;;;;;;;;;5052699;28;20033;-77
2021/08/01 02:57:18;;;;;;;3.40;1.23;;;;;;;;;;5052411;28;20045;-79
2021/08/01 03:00:22;;;;;;;4.32;1.23;;;;;;;;;;5051964;28;20045;-80
2021/08/01 03:03:26;;;;;;;5.18;1.83;;;;;;;;;;5051559;28;20394;-79
2021/08/01 03:06:32;;;;;;;3.70;1.15;;;;;;;;;;5051396;28;20053;-78
2021/08/01 03:09:35;;;;;;;2.85;1.30;;;;;;;;;;5050763;28;20041;-79
2021/08/01 03:12:43;;;;;;;4.50;1.08;;;;;;;;;;5050516;28;20040;-78
2021/08/01 03:15:46;;;;;;;2.95;0.88;;;;;;;;;;5051735;28;20037;-78
2021/08/01 03:18:49;;;;;;;0.63;0.47;;;;;;;;;;5051721;28;20040;-78
2021/08/01 03:21:52;;;;;;;1.77;0.68;;;;;;;;;;5051518;28;20045;-78
2021/08/01 03:24:55;;;;;;;3.47;1.02;;;;;;;;;;5051693;28;20473;-78
2021/08/01 03:27:58;;;;;;;0.75;0.40;;;;;;;;;;5051993;28;20041;-79
2021/08/01 03:31:02;;;;;;;3.00;0.70;;;;;;;;;;5051675;28;20045;-78
2021/08/01 03:34:05;;;;;;;1.80;1.42;;;;;;;;;;5051508;28;20427;-78
2021/08/01 03:37:07;;;;;;;1.73;0.80;;;;;;;;;;5050844;28;20045;-79
2021/08/01 03:40:11;;;;;;;2.03;0.80;;;;;;;;;;5052040;28;20041;-79
2021/08/01 03:43:14;;;;;;;2.10;1.38;;;;;;;;;;5052024;28;20374;-79
2021/08/01 03:46:17;;;;;;;1.40;0.75;;;;;;;;;;5051482;28;20410;-78
2021/08/01 03:49:20;;;;;;;2.67;1.20;;;;;;;;;;5053658;28;20370;-79
2021/08/01 03:52:23;;;;;;;1.65;0.40;;;;;;;;;;5055531;28;20041;-78
2021/08/01 03:55:26;;;;;;;14.18;0.77;;;;;;;;;;5055332;28;20041;-78
2021/08/01 03:58:29;;;;;;;1.90;0.20;;;;;;;;;;5055437;28;20041;-79
2021/08/01 04:01:32;;;;;;;1.50;0.68;;;;;;;;;;5054951;28;20041;-78
2021/08/01 04:04:36;;;;;;;2.85;0.57;;;;;;;;;;5054968;28;20053;-79
2021/08/01 04:07:39;;;;;;;0.43;0.22;;;;;;;;;;5054560;28;20563;-78
2021/08/01 04:10:42;;;;;;;0.68;0.40;;;;;;;;;;5055277;28;20654;-79
2021/08/01 04:13:45;;;;;;;1.20;0.68;;;;;;;;;;5055514;28;20040;-79
2021/08/01 04:16:48;;;;;;;2.28;0.43;;;;;;;;;;5055225;28;20036;-78
2021/08/01 04:19:51;;;;;;;3.22;0.80;;;;;;;;;;5055499;28;20037;-78
2021/08/01 04:22:55;;;;;;;1.30;0.60;;;;;;;;;;5055369;28;20044;-78
2021/08/01 04:25:58;;;;;;;2.47;0.63;;;;;;;;;;5055251;28;20048;-79
2021/08/01 04:29:01;;;;;;;1.15;0.55;;;;;;;;;;5055220;28;20037;-79
2021/08/01 04:32:04;;;;;;;2.08;0.88;;;;;;;;;;5053843;28;20402;-78
2021/08/01 04:35:07;;;;;;;1.23;0.77;;;;;;;;;;5054807;28;20378;-78
2021/08/01 04:38:11;;;;;;;2.67;1.02;;;;;;;;;;5055196;28;20041;-78
2021/08/01 04:41:14;;;;;;;0.52;0.45;;;;;;;;;;5054932;28;20370;-78
2021/08/01 04:44:17;;;;;;;1.58;0.77;;;;;;;;;;5054834;28;20041;-78
2021/08/01 04:47:20;;;;;;;2.45;0.77;;;;;;;;;;5054619;28;20386;-78
2021/08/01 04:50:23;;;;;;;8.88;0.98;;;;;;;;;;5053751;28;20044;-78
2021/08/01 04:53:26;;;;;;;2.38;0.30;;;;;;;;;;5054404;28;20044;-78
2021/08/01 04:56:29;;;;;;;0.20;0.10;;;;;;;;;;5053535;28;20040;-78
2021/08/01 04:59:35;;;;;;;0.20;0.20;;;;;;;;;;5054225;28;20041;-78
2021/08/01 05:02:38;;;;;;;1.33;0.50;;;;;;;;;;5053207;28;20041;-78
2021/08/01 05:05:41;;;;;;;1.73;0.68;;;;;;;;;;5053789;28;20041;-78
2021/08/01 05:08:44;;;;;;;1.10;0.40;;;;;;;;;;5053349;28;20037;-78
2021/08/01 05:11:47;;;;;;;1.88;0.63;;;;;;;;;;5054394;28;20037;-78
2021/08/01 05:14:50;;;;;;;1.08;0.47;;;;;;;;;;5054227;28;20045;-78
2021/08/01 05:17:53;;;;;;;1.15;0.50;;;;;;;;;;5054242;28;20041;-79
2021/08/01 05:20:57;;;;;;;1.00;0.50;;;;;;;;;;5052805;28;20036;-79
2021/08/01 05:24:00;;;;;;;8.32;0.68;;;;;;;;;;5054410;28;20037;-78
2021/08/01 05:27:03;;;;;;;3.10;0.90;;;;;;;;;;5054439;28;20175;-77
2021/08/01 05:30:06;;;;;;;3.30;0.95;;;;;;;;;;5054307;28;20045;-78
2021/08/01 05:33:10;;;;;;;6.47;0.73;;;;;;;;;;5054321;28;20045;-77
2021/08/01 05:36:13;;;;;;;6.78;1.23;;;;;;;;;;5054071;28;20037;-77
2021/08/01 05:39:16;;;;;;;1.17;0.77;;;;;;;;;;5054613;28;20045;-77
2021/08/01 05:42:19;;;;;;;1.55;0.73;;;;;;;;;;5054073;28;20041;-77
2021/08/01 05:45:22;;;;;;;3.00;0.85;;;;;;;;;;5053542;28;20659;-78
2021/08/01 05:48:25;;;;;;;1.90;0.77;;;;;;;;;;5054154;28;20481;-78
2021/08/01 05:51:28;;;;;;;3.40;0.55;;;;;;;;;;5053819;28;20037;-78
2021/08/01 05:54:31;;;;;;;2.72;1.05;;;;;;;;;;5053159;28;20041;-77
2021/08/01 05:57:35;;;;;;;8.50;1.33;;;;;;;;;;5053324;28;20041;-77
2021/08/01 06:00:38;;;;;;;1.50;0.73;;;;;;;;;;5052951;28;20045;-77
2021/08/01 06:03:41;;;;;;;3.53;0.95;;;;;;;;;;5052904;28;20041;-77
2021/08/01 06:06:45;;;;;;;5.50;1.77;;;;;;;;;;5052952;28;20056;-77
2021/08/01 06:09:48;;;;;;;1.73;0.57;;;;;;;;;;5053316;28;20037;-77
2021/08/01 06:12:51;;;;;;;4.15;0.68;;;;;;;;;;5052246;28;20048;-77
2021/08/01 06:15:54;;;;;;;1.55;0.73;;;;;;;;;;5052921;28;20041;-77
2021/08/01 06:18:57;;;;;;;3.05;1.30;;;;;;;;;;5053046;28;20044;-77
2021/08/01 06:22:00;;;;;;;4.18;0.82;;;;;;;;;;5053310;28;20045;-77
2021/08/01 06:25:03;;;;;;;1.08;0.80;;;;;;;;;;5053231;28;20445;-77
2021/08/01 06:28:06;;;;;;;1.73;0.80;;;;;;;;;;5053477;28;20037;-75
2021/08/01 06:31:09;;;;;;;2.58;1.33;;;;;;;;;;5053077;28;20037;-76
2021/08/01 06:34:12;;;;;;;2.30;0.70;;;;;;;;;;5052708;28;20045;-75
2021/08/01 06:37:16;;;;;;;4.28;1.05;;;;;;;;;;5052937;28;20029;-76
2021/08/01 06:40:19;;;;;;;1.48;0.80;;;;;;;;;;5052314;28;20045;-76
2021/08/01 06:43:22;;;;;;;3.13;0.50;;;;;;;;;;5070625;28;20044;-76
2021/08/01 06:46:25;;;;;;;1.40;0.38;;;;;;;;;;5071650;28;20481;-76
2021/08/01 06:49:28;;;;;;;2.13;0.93;;;;;;;;;;5072332;28;20036;-75
2021/08/01 06:52:31;;;;;;;1.00;0.65;;;;;;;;;;5072055;28;20040;-75
2021/08/01 06:55:35;;;;;;;1.50;0.32;;;;;;;;;;5067010;28;20041;-75
2021/08/01 06:58:38;;;;;;;1.92;0.35;;;;;;;;;;5071087;28;20374;-77
2021/08/01 07:01:41;;;;;;;2.95;1.25;;;;;;;;;;5071334;28;20044;-77
2021/08/01 07:04:44;;;;;;;0.77;0.60;;;;;;;;;;5068995;28;20480;-79
2021/08/01 07:07:48;;;;;;;1.23;0.45;;;;;;;;;;5069665;28;20465;-78
2021/08/01 07:10:51;;;;;;;0.70;0.52;;;;;;;;;;5070229;28;20040;-77
2021/08/01 07:13:54;;;;;;;0.32;0.32;;;;;;;;;;5052194;28;20037;-78
2021/08/01 07:16:58;;;;;;;1.67;0.28;;;;;;;;;;5056849;28;20041;-77
2021/08/01 07:20:02;;;;;;;1.67;0.68;;;;;;;;;;5071703;28;20040;-77
2021/08/01 07:23:06;;;;;;;0.55;0.40;;;;;;;;;;5070012;28;20469;-78
2021/08/01 07:26:09;;;;;;;1.38;0.63;;;;;;;;;;5072334;28;20048;-77
2021/08/01 07:29:12;;;;;;;1.88;0.55;;;;;;;;;;5071032;28;20365;-80
2021/08/01 07:32:15;;;;;;;5.03;0.82;;;;;;;;;;5072061;28;20052;-78
2021/08/01 07:35:20;;;;;;;6.85;0.77;;;;;;;;;;5072225;28;20052;-78
2021/08/01 07:38:24;;;;;;;0.98;0.38;;;;;;;;;;5071615;28;20036;-78
2021/08/01 07:41:27;;;;;;;1.23;0.55;;;;;;;;;;5071733;28;20036;-78
2021/08/01 07:44:35;;;;;;;4.72;0.80;;;;;;;;;;5071409;28;20354;-78
2021/08/01 07:47:38;;;;;;;1.92;0.73;;;;;;;;;;5072076;28;20041;-79
2021/08/01 07:50:42;;;;;;;0.95;0.25;;;;;;;;;;5072118;28;20040;-78
2021/08/01 07:53:46;;;;;;;0.30;0.20;;;;;;;;;;5071117;28;20049;-78
2021/08/01 07:56:52;;;;;;;1.50;0.60;;;;;;;;;;5072026;28;20477;-78
2021/08/01 07:59:57;;;;;;;2.78;1.60;;;;;;;;;;5072101;28;20036;-77
2021/08/01 08:03:00;;;;;;;2.40;0.50;;;;;;;;;;5071697;28;20040;-78
2021/08/01 08:06:05;;;;;;;4.72;1.23;;;;;;;;;;5071894;28;20048;-78
2021/08/01 08:09:09;;;;;;;2.28;0.60;;;;;;;;;;5071474;28;20044;-79
2021/08/01 08:12:12;;;;;;;0.40;0.20;;;;;;;;;;5071520;28;20045;-78
2021/08/01 08:15:16;;;;;;;5.07;1.25;;;;;;;;;;5071251;28;20041;-78
2021/08/01 08:18:20;;;;;;;1.15;0.35;;;;;;;;;;5071293;28;20037;-78
2021/08/01 08:21:26;;;;;;;5.55;0.52;;;;;;;;;;5071281;28;20037;-78
2021/08/01 08:24:29;;;;;;;2.85;0.40;;;;;;;;;;5070157;28;20469;-78
2021/08/01 08:27:32;;;;;;;0.75;0.40;;;;;;;;;;5070985;28;20041;-78
2021/08/01 08:30:35;;;;;;;1.40;0.35;;;;;;;;;;5071214;28;20044;-78
2021/08/01 08:33:39;;;;;;;4.28;1.25;;;;;;;;;;5071354;28;20048;-78
2021/08/01 08:36:44;;;;;;;0.90;0.25;;;;;;;;;;5073070;28;20374;-78
2021/08/01 08:39:48;;;;;;;1.45;0.70;;;;;;;;;;5075461;28;20036;-78
2021/08/01 08:42:51;;;;;;;1.65;0.68;;;;;;;;;;5075074;28;20036;-78
2021/08/01 08:45:56;;;;;;;0.82;0.43;;;;;;;;;;5075051;28;20056;-78
2021/08/01 08:49:00;;;;;;;1.45;0.80;;;;;;;;;;5074649;28;20044;-78
2021/08/01 08:52:05;;;;;;;1.05;0.60;;;;;;;;;;5075274;28;20040;-77
2021/08/01 08:55:09;;;;;;;6.32;0.60;;;;;;;;;;5074698;28;20472;-78
2021/08/01 08:58:13;;;;;;;2.47;0.85;;;;;;;;;;5074738;28;20040;-78
2021/08/01 09:01:17;;;;;;;2.08;0.80;;;;;;;;;;5074732;28;20477;-77
2021/08/01 09:04:22;;;;;;;1.85;0.80;;;;;;;;;;5073287;28;20049;-77
2021/08/01 09:07:25;;;;;;;2.35;0.93;;;;;;;;;;5073279;28;20049;-77
2021/08/01 09:10:30;;;;;;;4.85;1.80;;;;;;;;;;5074162;28;20052;-78
2021/08/01 09:13:47;;;;;;;2.20;1.00;;;;;;;;;;5074366;28;20036;-77
2021/08/01 09:16:51;;;;;;;1.85;0.82;;;;;;;;;;5074300;28;20040;-77
2021/08/01 09:20:10;;;;;;;2.40;0.70;;;;;;;;;;5074867;28;20045;-77
2021/08/01 09:23:13;;;;;;;1.90;1.08;;;;;;;;;;5074634;28;20036;-77
2021/08/01 09:26:16;;;;;;;1.20;0.65;;;;;;;;;;5073749;28;20040;-77
2021/08/01 09:29:19;;;;;;;1.10;0.47;;;;;;;;;;5074240;28;20044;-77
2021/08/01 09:32:23;;;;;;;2.15;0.45;;;;;;;;;;5073760;28;20044;-78
2021/08/01 09:35:26;;;;;;;1.25;0.55;;;;;;;;;;5072985;28;20049;-77
2021/08/01 09:38:41;;;;;;;0.60;0.20;;;;;;;;;;5073168;28;20374;-77
2021/08/01 09:41:44;;;;;;;1.20;0.57;;;;;;;;;;5073495;28;20037;-77
2021/08/01 09:44:48;;;;;;;1.00;0.47;;;;;;;;;;5073542;28;20040;-77
2021/08/01 09:47:52;;;;;;;1.88;0.57;;;;;;;;;;5073443;28;20041;-78
2021/08/01 09:50:57;;;;;;;1.77;0.70;;;;;;;;;;5073534;28;20036;-77
2021/08/01 09:54:00;;;;;;;1.80;0.68;;;;;;;;;;5073595;28;20476;-78
2021/08/01 09:57:06;;;;;;;3.15;1.02;;;;;;;;;;5073279;28;20040;-77
2021/08/01 10:00:10;;;;;;;2.42;0.88;;;;;;;;;;5073332;28;20040;-78
2021/08/01 10:03:33;;;;;;;2.80;0.98;;;;;;;;;;5073635;28;20044;-78
2021/08/01 10:06:36;;;;;;;1.20;0.65;;;;;;;;;;5072912;28;20472;-78
2021/08/01 10:09:42;;;;;;;2.20;0.50;;;;;;;;;;5072560;28;20041;-78
2021/08/01 10:12:49;;;;;;;1.42;0.45;;;;;;;;;;5073181;28;20032;-78
2021/08/01 10:15:52;;;;;;;2.42;0.63;;;;;;;;;;5072651;28;20036;-78
2021/08/01 10:18:55;;;;;;;5.05;1.67;;;;;;;;;;5073556;28;20469;-78
2021/08/01 10:21:59;;;;;;;3.28;1.25;;;;;;;;;;5073594;28;20044;-78
2021/08/01 10:25:06;;;;;;;3.72;0.73;;;;;;;;;;5071875;28;20040;-78
2021/08/01 10:28:10;;;;;;;4.32;0.82;;;;;;;;;;5072380;28;20044;-78
2021/08/01 10:31:14;;;;;;;3.08;0.63;;;;;;;;;;5071919;28;20040;-77
2021/08/01 10:34:36;;;;;;;8.50;0.73;;;;;;;;;;5073029;28;20044;-78
2021/08/01 10:37:42;;;;;;;0.77;0.20;;;;;;;;;;5072408;28;20230;-77
2021/08/01 10:40:51;;;;;;;1.13;0.68;;;;;;;;;;5072968;28;20040;-76
2021/08/01 10:43:55;;;;;;;0.95;0.73;;;;;;;;;;5073216;28;20469;-77
2021/08/01 10:46:58;;;;;;;0.82;0.38;;;;;;;;;;5072947;28;20048;-76
2021/08/01 10:50:02;;;;;;;2.65;0.75;;;;;;;;;;5072212;28;20036;-76
2021/08/01 10:53:20;;;;;;;0.93;0.50;;;;;;;;;;5072681;28;20040;-76
2021/08/01 10:56:23;;;;;;;0.57;0.20;;;;;;;;;;5071728;28;20045;-76
2021/08/01 11:00:00;;;;;;;1.73;0.30;;;;;;;;;;5071705;28;20446;-77
2021/08/01 11:03:16;;;;;;;3.50;0.32;;;;;;;;;;5060338;28;20362;-76
2021/08/01 11:06:35;;;;;;;1.33;0.52;;;;;;;;;;5072100;28;20056;-76
2021/08/01 11:09:38;;;;;;;0.25;0.20;;;;;;;;;;5071556;28;20044;-76
2021/08/01 11:12:42;;;;;;;0.68;0.40;;;;;;;;;;5070642;28;20040;-76
2021/08/01 11:15:46;;;;;;;0.40;0.30;;;;;;;;;;5071709;28;20040;-75
2021/08/01 11:18:49;;;;;;;0.47;0.30;;;;;;;;;;5072187;28;20044;-75
2021/08/01 11:21:52;;;;;;;0.63;0.25;;;;;;;;;;5072058;28;20044;-76
2021/08/01 11:25:14;;;;;;;0.45;0.10;;;;;;;;;;5071993;28;20040;-76
2021/08/01 11:28:28;;;;;;;0.22;0.03;;;;;;;;;;5072398;28;20485;-76
2021/08/01 11:31:32;;;;;;;0.52;0.17;;;;;;;;;;5071640;28;20045;-75
2021/08/01 11:34:36;;;;;;;0.88;0.20;;;;;;;;;;5071876;28;20049;-76
2021/08/01 11:37:40;;;;;;;4.75;0.17;;;;;;;;;;5071824;28;21602;-76
2021/08/01 11:40:44;;;;;;;2.25;0.10;;;;;;;;;;5071503;28;20044;-75
2021/08/01 11:43:57;;;;;;;1.38;0.32;;;;;;;;;;5071253;28;20044;-75
2021/08/01 11:47:00;;;;;;;0.70;0.28;;;;;;;;;;5072081;28;20386;-75
2021/08/01 11:50:05;;;;;;;0.20;0.10;;;;;;;;;;5072164;28;20461;-75
2021/08/01 11:53:09;;;;;;;0.90;0.28;;;;;;;;;;5072364;28;20040;-76
2021/08/01 11:56:13;;;;;;;0.77;0.10;;;;;;;;;;5071467;28;20044;-75
2021/08/01 11:59:16;;;;;;;0.82;0.10;;;;;;;;;;5071910;28;20385;-75
2021/08/01 12:02:19;;;;;;;1.40;0.28;;;;;;;;;;5071635;28;20045;-76
2021/08/01 12:05:37;;;;;;;0.73;0.20;;;;;;;;;;5071249;28;20037;-76
2021/08/01 12:08:41;;;;;;;1.20;0.25;;;;;;;;;;5071473;28;20044;-75
2021/08/01 12:11:49;;;;;;;1.00;0.10;;;;;;;;;;5075154;28;20033;-75
2021/08/01 12:14:53;;;;;;;4.00;0.70;;;;;;;;;;5075430;28;20040;-76
2021/08/01 12:17:56;;;;;;;0.47;0.20;;;;;;;;;;5075921;28;20044;-76
2021/08/01 12:20:59;;;;;;;0.35;0.20;;;;;;;;;;5075817;28;20040;-75
2021/08/01 12:24:03;;;;;;;0.30;0.20;;;;;;;;;;5075546;28;20040;-76
2021/08/01 12:27:13;;;;;;;0.43;0.30;;;;;;;;;;5075408;28;20048;-75
2021/08/01 12:30:19;;;;;;;0.55;0.10;;;;;;;;;;5075528;28;20472;-75
2021/08/01 12:33:23;;;;;;;1.77;0.22;;;;;;;;;;5075032;28;20048;-76
2021/08/01 12:36:26;;;;;;;1.85;0.30;;;;;;;;;;5075093;28;20395;-75
2021/08/01 12:39:29;;;;;;;0.68;0.20;;;;;;;;;;5074990;28;20473;-75
2021/08/01 12:42:32;;;;;;;0.88;0.20;;;;;;;;;;5075098;28;20041;-76
2021/08/01 12:45:42;;;;;;;0.73;0.43;;;;;;;;;;5074109;28;20044;-74
2021/08/01 12:48:48;;;;;;;0.55;0.00;;;;;;;;;;5075008;28;20036;-75
2021/08/01 12:51:51;;;;;;;2.47;0.30;;;;;;;;;;5075098;28;20036;-75
2021/08/01 12:54:55;;;;;;;1.17;0.10;;;;;;;;;;5074688;28;20036;-75
2021/08/01 12:57:59;;;;;;;0.47;0.10;;;;;;;;;;5074754;28;20045;-75
2021/08/01 13:01:04;;;;;;;0.63;0.20;;;;;;;;;;5074579;28;20378;-75
2021/08/01 13:04:07;;;;;;;2.15;0.30;;;;;;;;;;5074752;28;20465;-75
2021/08/01 13:07:11;;;;;;;2.65;0.22;;;;;;;;;;5074509;28;20045;-75
2021/08/01 13:10:14;;;;;;;0.57;0.30;;;;;;;;;;5074267;28;20040;-75
2021/08/01 13:13:18;;;;;;;1.20;0.28;;;;;;;;;;5074302;28;20457;-73
2021/08/01 13:16:21;;;;;;;1.15;0.22;;;;;;;;;;5073770;28;20052;-74
2021/08/01 13:19:26;;;;;;;0.82;0.22;;;;;;;;;;5074180;28;20033;-73
2021/08/01 13:22:34;;;;;;;0.57;0.40;;;;;;;;;;5073166;28;20045;-74
2021/08/01 13:25:37;;;;;;;1.30;0.45;;;;;;;;;;5073741;28;20040;-74
2021/08/01 13:28:58;;;;;;;0.40;0.10;;;;;;;;;;5074105;28;20040;-74
2021/08/01 13:32:06;;;;;;;0.63;0.17;;;;;;;;;;5074519;28;20044;-74
2021/08/01 13:35:25;;;;;;;1.80;0.40;;;;;;;;;;5074638;28;20044;-74
2021/08/01 13:38:28;;;;;;;0.40;0.13;;;;;;;;;;5073719;28;20037;-74
2021/08/01 13:41:32;;;;;;;0.63;0.30;;;;;;;;;;5073356;28;20041;-74
2021/08/01 13:44:36;;;;;;;0.50;0.00;;;;;;;;;;5072735;28;20041;-75
2021/08/01 13:47:48;;;;;;;1.63;0.30;;;;;;;;;;5073461;28;20049;-75
2021/08/01 13:50:51;;;;;;;0.35;0.05;;;;;;;;;;5074400;28;20472;-74
2021/08/01 13:53:54;;;;;;;0.65;0.22;;;;;;;;;;5074241;28;20044;-75
2021/08/01 13:56:57;;;;;;;0.88;0.13;;;;;;;;;;5073139;28;20091;-74
2021/08/01 14:00:01;;;;;;;0.40;0.20;;;;;;;;;;5073520;28;20373;-74
2021/08/01 14:03:06;;;;;;;0.82;0.10;;;;;;;;;;5073818;28;20041;-74
2021/08/01 14:06:09;;;;;;;0.80;0.35;;;;;;;;;;5072976;28;20056;-75
2021/08/01 14:09:12;;;;;;;0.40;0.10;;;;;;;;;;5072346;28;20032;-74
2021/08/01 14:12:16;;;;;;;0.65;0.22;;;;;;;;;;5072094;28;20044;-75
2021/08/01 14:15:19;;;;;;;1.02;0.40;;;;;;;;;;5071755;28;20048;-74
2021/08/01 14:18:22;;;;;;;0.95;0.20;;;;;;;;;;5072293;28;20627;-74
2021/08/01 14:21:25;;;;;;;0.50;0.20;;;;;;;;;;5072388;28;20048;-74
2021/08/01 14:24:28;;;;;;;2.72;0.57;;;;;;;;;;5072314;28;20037;-75
2021/08/01 14:27:32;;;;;;;0.20;0.10;;;;;;;;;;5072617;28;20358;-74
2021/08/01 14:30:36;;;;;;;0.17;0.00;;;;;;;;;;5072639;28;20048;-75
2021/08/01 14:33:41;;;;;;;1.08;0.30;;;;;;;;;;5071460;28;20072;-74
2021/08/01 14:36:44;;;;;;;0.20;0.10;;;;;;;;;;5072498;28;20040;-75
2021/08/01 14:39:47;;;;;;;0.20;0.10;;;;;;;;;;5072798;28;20032;-74
2021/08/01 14:42:51;;;;;;;0.85;0.10;;;;;;;;;;5072160;28;20040;-75
2021/08/01 14:45:54;;;;;;;3.30;0.30;;;;;;;;;;5071384;28;20056;-74
2021/08/01 14:49:06;;;;;;;0.30;0.00;;;;;;;;;;5072032;28;20480;-74
2021/08/01 14:55:12;;;;;;;0.28;0.10;;;;;;;;;;5072034;28;20048;-75
2021/08/01 14:58:22;;;;;;;0.35;0.10;;;;;;;;;;5071454;28;20044;-75
2021/08/01 15:01:30;;;;;;;1.95;0.20;;;;;;;;;;5071113;28;20045;-75
2021/08/01 15:04:38;;;;;;;0.30;0.28;;;;;;;;;;5071006;28;20485;-75
2021/08/01 15:07:48;;;;;;;3.80;0.43;;;;;;;;;;5070955;28;20048;-75
2021/08/01 15:10:56;;;;;;;0.32;0.10;;;;;;;;;;5070946;28;20036;-75
2021/08/01 15:13:59;;;;;;;0.20;0.10;;;;;;;;;;5071402;28;20044;-74
2021/08/01 15:17:24;;;;;;;0.50;0.20;;;;;;;;;;5071199;28;20040;-75
2021/08/01 15:20:28;;;;;;;0.40;0.10;;;;;;;;;;5071020;28;20366;-74
2021/08/01 15:23:36;;;;;;;0.20;0.10;;;;;;;;;;5071297;28;20469;-74
2021/08/01 15:26:40;;;;;;;2.75;0.30;;;;;;;;;;5071082;28;20044;-74
2021/08/01 15:29:43;;;;;;;0.40;0.13;;;;;;;;;;5071418;28;20036;-75
2021/08/01 15:32:48;;;;;;;0.80;0.20;;;;;;;;;;5071639;28;20045;-75
2021/08/01 15:35:52;;;;;;;1.02;0.30;;;;;;;;;;5071044;28;20040;-73
2021/08/01 15:38:55;;;;;;;2.92;0.20;;;;;;;;;;5071783;28;20045;-74
2021/08/01 15:41:58;;;;;;;0.70;0.20;;;;;;;;;;5071575;28;20370;-75
2021/08/01 15:45:03;;;;;;;0.17;0.13;;;;;;;;;;5070903;28;20044;-74
2021/08/01 15:48:06;;;;;;;1.15;0.20;;;;;;;;;;5071715;28;20067;-74
2021/08/01 15:51:09;;;;;;;1.05;0.00;;;;;;;;;;5071984;28;20041;-74
2021/08/01 15:54:17;;;;;;;0.75;0.20;;;;;;;;;;5071747;28;20032;-73
2021/08/01 15:57:22;;;;;;;0.25;0.17;;;;;;;;;;5071444;28;20045;-74
2021/08/01 16:00:27;;;;;;;0.90;0.17;;;;;;;;;;5070735;28;20070;-74
2021/08/01 16:03:30;;;;;;;0.73;0.25;;;;;;;;;;5070980;28;20350;-73
2021/08/01 16:06:40;;;;;;;7.22;0.68;;;;;;;;;;5069841;28;20049;-75
2021/08/01 16:09:49;;;;;;;1.33;0.13;;;;;;;;;;5071335;28;20037;-74
2021/08/01 16:12:53;;;;;;;3.03;0.38;;;;;;;;;;5070719;28;20037;-74
2021/08/01 16:16:00;;;;;;;0.60;0.05;;;;;;;;;;5071546;28;20037;-74
2021/08/01 16:19:03;;;;;;;1.23;0.50;;;;;;;;;;5071587;28;20382;-74
2021/08/01 16:22:06;;;;;;;0.10;0.10;;;;;;;;;;5071642;28;20531;-74
2021/08/01 16:25:12;;;;;;;0.38;0.20;;;;;;;;;;5070274;28;20469;-74
2021/08/01 16:28:16;;;;;;;0.43;0.20;;;;;;;;;;5071122;28;20377;-74
2021/08/01 16:31:20;;;;;;;1.92;0.10;;;;;;;;;;5071077;28;20048;-74
2021/08/01 16:34:27;;;;;;;0.40;0.20;;;;;;;;;;5071251;28;20032;-74
2021/08/01 16:37:31;;;;;;;1.05;0.40;;;;;;;;;;5070967;28;20040;-75
2021/08/01 16:40:37;;;;;;;0.10;0.00;;;;;;;;;;5071068;28;20370;-74
2021/08/01 16:43:53;;;;;;;0.47;0.05;;;;;;;;;;5070582;28;20032;-74
2021/08/01 16:47:00;;;;;;;0.30;0.28;;;;;;;;;;5071155;28;20048;-75
2021/08/01 16:50:27;;;;;;;2.05;0.73;;;;;;;;;;5071449;28;20453;-74
2021/08/01 16:53:53;;;;;;;0.55;0.10;;;;;;;;;;5071295;28;20473;-74
2021/08/01 16:57:04;;;;;;;0.55;0.20;;;;;;;;;;5072182;28;20040;-74
2021/08/01 17:00:08;;;;;;;0.32;0.10;;;;;;;;;;5074976;28;20040;-73
2021/08/01 17:03:15;;;;;;;0.57;0.20;;;;;;;;;;5074650;28;20044;-74
2021/08/01 17:06:37;;;;;;;0.32;0.20;;;;;;;;;;5074516;28;20040;-73
2021/08/01 17:09:41;;;;;;;1.23;0.25;;;;;;;;;;5074230;28;20048;-74
2021/08/01 17:12:44;;;;;;;0.52;0.10;;;;;;;;;;5074599;28;20036;-74
2021/08/01 17:15:48;;;;;;;0.10;0.10;;;;;;;;;;5074964;28;20468;-74
2021/08/01 17:18:51;;;;;;;2.45;0.47;;;;;;;;;;5075035;28;20465;-74
2021/08/01 17:21:55;;;;;;;3.47;0.20;;;;;;;;;;5074832;28;20040;-74
2021/08/01 17:24:58;;;;;;;2.47;0.25;;;;;;;;;;5073925;28;20369;-74
2021/08/01 17:28:04;;;;;;;0.30;0.10;;;;;;;;;;5074365;28;20370;-75
2021/08/01 17:31:16;;;;;;;2.13;0.25;;;;;;;;;;5074386;28;20041;-74
2021/08/01 17:34:22;;;;;;;0.43;0.25;;;;;;;;;;5074044;28;20385;-75
2021/08/01 17:37:25;;;;;;;0.50;0.20;;;;;;;;;;5073786;28;20041;-74
2021/08/01 17:40:29;;;;;;;0.30;0.10;;;;;;;;;;5073441;28;20036;-75
2021/08/01 17:43:32;;;;;;;0.55;0.20;;;;;;;;;;5073002;28;20037;-74
2021/08/01 17:46:35;;;;;;;0.47;0.47;;;;;;;;;;5072824;28;20053;-74
2021/08/01 17:49:40;;;;;;;1.00;0.45;;;;;;;;;;5074147;28;20036;-74
2021/08/01 17:52:48;;;;;;;0.57;0.20;;;;;;;;;;5073718;28;20045;-74
2021/08/01 17:55:52;;;;;;;1.05;0.20;;;;;;;;;;5074067;28;20041;-74
2021/08/01 17:58:55;;;;;;;0.20;0.10;;;;;;;;;;5073615;28;20036;-75
2021/08/01 18:01:58;;;;;;;0.50;0.47;;;;;;;;;;5073823;28;20045;-75
2021/08/01 18:05:02;;;;;;;0.45;0.20;;;;;;;;;;5073617;28;20041;-75
2021/08/01 18:08:15;;;;;;;0.52;0.10;;;;;;;;;;5073163;28;20381;-74
2021/08/01 18:11:18;;;;;;;0.43;0.20;;;;;;;;;;5073185;28;20044;-75
2021/08/01 18:14:36;;;;;;;0.10;0.10;;;;;;;;;;5072409;28;20041;-74
2021/08/01 18:17:42;;;;;;;0.40;0.40;;;;;;;;;;5072808;28;20028;-74
2021/08/01 18:20:51;;;;;;;0.20;0.00;;;;;;;;;;5072612;28;20041;-74
2021/08/01 18:23:55;;;;;;;1.48;0.45;;;;;;;;;;5072944;28;20036;-75
2021/08/01 18:26:59;;;;;;;0.10;0.00;;;;;;;;;;5072992;28;20386;-74
2021/08/01 18:30:03;;;;;;;0.20;0.10;;;;;;;;;;5072940;28;20028;-75
2021/08/01 18:33:10;;;;;;;1.05;0.20;;;;;;;;;;5072919;28;20048;-74